createdAt,value
2022-11-09T00:02:26.014Z,100590.63
2022-11-09T00:04:52.395Z,100585.31
2022-11-09T00:07:18.792Z,100594.16
2022-11-09T00:09:45.208Z,100587.22
2022-11-09T00:12:11.608Z,100596.78
2022-11-09T00:14:38.739Z,100598.53
2022-11-09T00:17:05.126Z,100599.38
2022-11-09T00:19:31.450Z,100603.31
2022-11-09T00:21:57.859Z,100610.91
2022-11-09T00:24:24.204Z,100608.38
2022-11-09T00:26:50.752Z,100610.38
2022-11-09T00:29:17.089Z,100614.78
2022-11-09T00:31:43.486Z,100617.03
2022-11-09T00:34:09.797Z,100619.59
2022-11-09T00:36:36.129Z,100625.72
2022-11-09T00:39:02.456Z,100615.44
2022-11-09T00:41:29.027Z,100609.00
2022-11-09T00:43:55.935Z,100608.53
2022-11-09T00:46:22.495Z,100604.91
2022-11-09T00:48:49.177Z,100609.00
2022-11-09T00:51:15.866Z,100602.97
2022-11-09T00:53:42.814Z,100596.16
2022-11-09T00:56:12.734Z,100607.44
2022-11-09T00:58:40.836Z,100592.47
2022-11-09T01:01:17.675Z,100593.72
2022-11-09T01:03:45.476Z,100605.78
2022-11-09T01:06:23.056Z,100595.38
2022-11-09T01:08:49.686Z,100593.06
2022-11-09T01:11:18.587Z,100594.31
2022-11-09T01:13:45.638Z,100603.75
2022-11-09T01:16:15.793Z,100590.09
2022-11-09T01:18:42.737Z,100600.06
2022-11-09T01:21:12.804Z,100603.38
2022-11-09T01:23:39.605Z,100597.03
2022-11-09T01:26:08.741Z,100613.72
2022-11-09T01:28:35.403Z,100608.00
2022-11-09T01:31:04.741Z,100610.84
2022-11-09T01:33:31.290Z,100611.69
2022-11-09T01:36:09.947Z,100621.81
2022-11-09T01:38:37.800Z,100620.16
2022-11-09T01:41:06.305Z,100613.34
2022-11-09T01:43:33.021Z,100618.84
2022-11-09T01:46:05.461Z,100616.16
2022-11-09T01:48:46.592Z,100621.81
2022-11-09T01:51:24.001Z,100611.25
2022-11-09T01:53:55.482Z,100620.44
2022-11-09T01:56:21.876Z,100624.66
2022-11-09T01:58:57.811Z,100627.81
2022-11-09T02:01:24.171Z,100628.69
2022-11-09T02:03:55.982Z,100621.75
2022-11-09T02:06:25.610Z,100629.78
2022-11-09T02:08:56.794Z,100619.81
2022-11-09T02:11:24.221Z,100614.06
2022-11-09T02:13:56.802Z,100622.00
2022-11-09T02:16:23.949Z,100620.78
2022-11-09T02:18:55.702Z,100599.88
2022-11-09T02:21:25.354Z,100604.31
2022-11-09T02:23:52.396Z,100604.69
2022-11-09T02:26:27.552Z,100601.97
2022-11-09T02:28:55.385Z,100614.53
2022-11-09T02:31:25.615Z,100608.94
2022-11-09T02:34:00.183Z,100617.25
2022-11-09T02:36:26.476Z,100617.53
2022-11-09T02:38:55.850Z,100629.16
2022-11-09T02:41:23.012Z,100629.94
2022-11-09T02:43:52.379Z,100631.34
2022-11-09T02:46:30.949Z,100626.50
2022-11-09T02:48:57.267Z,100618.03
2022-11-09T02:51:23.595Z,100629.16
2022-11-09T02:53:49.905Z,100632.09
2022-11-09T02:56:16.230Z,100623.75
2022-11-09T02:58:42.530Z,100621.72
2022-11-09T03:01:09.025Z,100620.78
2022-11-09T03:03:35.519Z,100624.47
2022-11-09T03:06:01.834Z,100618.56
2022-11-09T03:08:28.395Z,100623.59
2022-11-09T03:10:54.830Z,100609.47
2022-11-09T03:13:21.505Z,100617.41
2022-11-09T03:15:48.045Z,100621.50
2022-11-09T03:18:14.352Z,100626.56
2022-11-09T03:20:40.698Z,100625.19
2022-11-09T03:23:07.197Z,100631.47
2022-11-09T03:25:33.587Z,100629.88
2022-11-09T03:28:01.593Z,100634.66
2022-11-09T03:30:28.461Z,100639.41
2022-11-09T03:32:59.341Z,100631.13
2022-11-09T03:35:25.722Z,100641.72
2022-11-09T03:37:52.298Z,100636.97
2022-11-09T03:40:19.508Z,100639.75
2022-11-09T03:42:47.443Z,100645.66
2022-11-09T03:45:15.477Z,100643.69
2022-11-09T03:47:46.141Z,100643.13
2022-11-09T03:50:14.025Z,100643.28
2022-11-09T03:52:40.372Z,100651.81
2022-11-09T03:55:07.024Z,100654.06
2022-11-09T03:57:33.315Z,100652.13
2022-11-09T03:59:59.673Z,100656.50
2022-11-09T04:02:25.969Z,100660.13
2022-11-09T04:04:52.438Z,100673.63
2022-11-09T04:07:18.798Z,100673.50
2022-11-09T04:09:45.158Z,100674.03
2022-11-09T04:12:11.497Z,100680.16
2022-11-09T04:14:37.805Z,100673.78
2022-11-09T04:17:04.112Z,100675.19
2022-11-09T04:19:30.480Z,100673.75
2022-11-09T04:21:56.785Z,100674.34
2022-11-09T04:24:23.108Z,100680.63
2022-11-09T04:26:49.553Z,100686.56
2022-11-09T04:29:15.905Z,100688.31
2022-11-09T04:31:42.210Z,100692.38
2022-11-09T04:34:08.541Z,100682.38
2022-11-09T04:36:34.837Z,100696.94
2022-11-09T04:39:01.154Z,100698.06
2022-11-09T04:41:28.284Z,100698.06
2022-11-09T04:43:54.601Z,100690.31
2022-11-09T04:46:20.905Z,100693.94
2022-11-09T04:48:47.304Z,100700.31
2022-11-09T04:51:13.799Z,100697.56
2022-11-09T04:53:40.475Z,100697.84
2022-11-09T04:56:07.531Z,100696.16
2022-11-09T04:58:34.278Z,100700.78
2022-11-09T05:01:09.713Z,100701.72
2022-11-09T05:03:36.242Z,100702.03
2022-11-09T05:06:22.650Z,100697.00
2022-11-09T05:08:49.801Z,100699.47
2022-11-09T05:11:16.306Z,100705.28
2022-11-09T05:13:42.797Z,100699.72
2022-11-09T05:16:09.157Z,100689.72
2022-11-09T05:18:35.474Z,100695.75
2022-11-09T05:21:02.413Z,100701.47
2022-11-09T05:23:47.901Z,100703.94
2022-11-09T05:26:14.652Z,100703.03
2022-11-09T05:28:41.447Z,100705.66
2022-11-09T05:31:07.923Z,100705.09
2022-11-09T05:33:34.284Z,100703.28
2022-11-09T05:36:00.595Z,100704.56
2022-11-09T05:38:26.942Z,100711.53
2022-11-09T05:40:54.247Z,100717.06
2022-11-09T05:43:21.725Z,100713.47
2022-11-09T05:45:48.454Z,100713.69
2022-11-09T05:48:17.085Z,100710.22
2022-11-09T05:50:43.825Z,100707.31
2022-11-09T05:53:11.652Z,100708.56
2022-11-09T05:55:38.451Z,100718.22
2022-11-09T05:58:05.301Z,100709.03
2022-11-09T06:00:31.789Z,100703.19
2022-11-09T06:03:09.485Z,100711.28
2022-11-09T06:05:37.488Z,100700.97
2022-11-09T06:08:05.502Z,100705.81
2022-11-09T06:10:31.938Z,100711.78
2022-11-09T06:12:58.314Z,100721.00
2022-11-09T06:15:24.730Z,100719.63
2022-11-09T06:17:52.973Z,100726.19
2022-11-09T06:20:20.119Z,100726.56
2022-11-09T06:23:02.456Z,100725.19
2022-11-09T06:25:31.611Z,100731.06
2022-11-09T06:27:58.330Z,100738.50
2022-11-09T06:30:24.826Z,100739.25
2022-11-09T06:32:51.219Z,100747.31
2022-11-09T06:35:17.572Z,100746.34
2022-11-09T06:37:44.328Z,100756.47
2022-11-09T06:40:12.524Z,100752.59
2022-11-09T06:42:38.876Z,100758.44
2022-11-09T06:45:05.581Z,100758.03
2022-11-09T06:47:31.874Z,100752.75
2022-11-09T06:49:58.181Z,100757.63
2022-11-09T06:52:25.926Z,100748.16
2022-11-09T06:54:52.302Z,100753.00
2022-11-09T06:57:18.646Z,100755.25
2022-11-09T06:59:44.969Z,100751.09
2022-11-09T07:02:16.655Z,100754.28
2022-11-09T07:04:42.987Z,100761.09
2022-11-09T07:07:09.397Z,100760.56
2022-11-09T07:09:35.922Z,100765.84
2022-11-09T07:12:03.971Z,100774.44
2022-11-09T07:14:30.402Z,100775.00
2022-11-09T07:16:56.689Z,100770.00
2022-11-09T07:19:23.019Z,100770.38
2022-11-09T07:21:49.607Z,100764.38
2022-11-09T07:24:15.948Z,100768.16
2022-11-09T07:26:42.379Z,100770.38
2022-11-09T07:29:08.816Z,100767.72
2022-11-09T07:31:35.190Z,100767.16
2022-11-09T07:34:04.718Z,100772.91
2022-11-09T07:36:32.069Z,100779.00
2022-11-09T07:38:58.847Z,100765.88
2022-11-09T07:41:28.295Z,100770.53
2022-11-09T07:43:57.885Z,100774.69
2022-11-09T07:46:24.405Z,100772.66
2022-11-09T07:48:50.705Z,100779.28
2022-11-09T07:51:17.061Z,100785.78
2022-11-09T07:53:43.424Z,100777.50
2022-11-09T07:56:09.725Z,100781.59
2022-11-09T07:58:36.840Z,100783.47
2022-11-09T08:01:08.452Z,100778.16
2022-11-09T08:03:34.804Z,100788.69
2022-11-09T08:06:01.124Z,100791.41
2022-11-09T08:08:27.499Z,100788.56
2022-11-09T08:10:57.029Z,100788.72
2022-11-09T08:13:27.549Z,100784.28
2022-11-09T08:15:54.083Z,100788.84
2022-11-09T08:18:22.326Z,100790.25
2022-11-09T08:20:49.820Z,100798.75
2022-11-09T08:23:18.651Z,100788.38
2022-11-09T08:25:45.284Z,100799.84
2022-11-09T08:28:14.717Z,100792.34
2022-11-09T08:30:42.415Z,100793.69
2022-11-09T08:33:09.740Z,100804.81
2022-11-09T08:35:36.240Z,100795.84
2022-11-09T08:38:04.620Z,100795.19
2022-11-09T08:40:32.592Z,100804.75
2022-11-09T08:43:05.074Z,100809.13
2022-11-09T08:45:36.366Z,100803.69
2022-11-09T08:48:03.378Z,100816.81
2022-11-09T08:50:31.528Z,100816.72
2022-11-09T08:52:58.274Z,100808.50
2022-11-09T08:55:25.025Z,100819.81
2022-11-09T08:57:59.227Z,100813.06
2022-11-09T09:00:25.662Z,100816.09
2022-11-09T09:02:52.213Z,100823.03
2022-11-09T09:05:19.035Z,100805.81
2022-11-09T09:07:45.639Z,100818.16
2022-11-09T09:10:12.275Z,100817.22
2022-11-09T09:12:38.748Z,100821.34
2022-11-09T09:15:05.651Z,100824.56
2022-11-09T09:17:32.018Z,100819.97
2022-11-09T09:19:58.322Z,100808.72
2022-11-09T09:22:24.716Z,100816.34
2022-11-09T09:24:51.066Z,100815.16
2022-11-09T09:27:17.371Z,100824.56
2022-11-09T09:29:43.705Z,100814.38
2022-11-09T09:32:10.028Z,100826.16
2022-11-09T09:34:36.342Z,100822.41
2022-11-09T09:37:02.666Z,100832.22
2022-11-09T09:39:29.002Z,100832.88
2022-11-09T09:42:02.116Z,100830.53
2022-11-09T09:44:34.646Z,100838.94
2022-11-09T09:47:12.258Z,100831.81
2022-11-09T09:49:43.716Z,100842.34
2022-11-09T09:52:41.455Z,100838.69
2022-11-09T09:55:14.086Z,100835.94
2022-11-09T09:57:43.182Z,100834.19
2022-11-09T10:00:20.589Z,100852.19
2022-11-09T10:02:47.145Z,100850.84
2022-11-09T10:05:15.909Z,100856.53
2022-11-09T10:07:49.822Z,100853.50
2022-11-09T10:10:36.813Z,100846.84
2022-11-09T10:13:21.786Z,100856.16
2022-11-09T10:16:13.079Z,100854.97
2022-11-09T10:19:16.731Z,100862.06
2022-11-09T10:21:58.167Z,100857.25
2022-11-09T10:25:20.731Z,100861.59
2022-11-09T10:27:46.794Z,100859.41
2022-11-09T10:30:18.666Z,100868.59
2022-11-09T10:32:50.246Z,100868.47
2022-11-09T10:35:44.991Z,100866.00
2022-11-09T10:38:43.769Z,100874.38
2022-11-09T10:41:24.213Z,100881.22
2022-11-09T10:43:50.507Z,100866.53
2022-11-09T10:46:17.447Z,100870.34
2022-11-09T10:48:43.841Z,100859.50
2022-11-09T10:51:28.892Z,100875.03
2022-11-09T10:54:25.133Z,100870.72
2022-11-09T10:57:05.867Z,100863.13
2022-11-09T10:59:50.582Z,100870.41
2022-11-09T11:02:29.809Z,100869.66
2022-11-09T11:04:59.058Z,100865.75
2022-11-09T11:07:25.434Z,100878.94
2022-11-09T11:09:51.787Z,100869.13
2022-11-09T11:12:22.053Z,100861.47
2022-11-09T11:14:48.487Z,100868.44
2022-11-09T11:17:26.400Z,100868.81
2022-11-09T11:19:52.850Z,100863.94
2022-11-09T11:22:24.274Z,100874.63
2022-11-09T11:24:59.056Z,100876.09
2022-11-09T11:27:51.922Z,100867.66
2022-11-09T11:30:31.997Z,100864.41
2022-11-09T11:32:58.579Z,100878.53
2022-11-09T11:35:34.681Z,100862.97
2022-11-09T11:38:14.957Z,100878.41
2022-11-09T11:40:59.652Z,100862.13
2022-11-09T11:43:40.710Z,100862.03
2022-11-09T11:46:28.782Z,100860.47
2022-11-09T11:49:00.778Z,100873.50
2022-11-09T11:52:10.598Z,100882.63
2022-11-09T11:54:52.068Z,100886.09
2022-11-09T11:57:33.640Z,100895.25
2022-11-09T12:00:13.327Z,100925.72
2022-11-09T12:02:48.719Z,100909.66
2022-11-09T12:05:36.973Z,100877.72
2022-11-09T12:08:09.292Z,100907.28
2022-11-09T12:11:03.763Z,100918.41
2022-11-09T12:13:53.602Z,100908.69
2022-11-09T12:16:29.296Z,100905.28
2022-11-09T12:19:27.066Z,100897.84
2022-11-09T12:22:00.417Z,100900.34
2022-11-09T12:24:41.550Z,100897.50
2022-11-09T12:27:32.173Z,100905.28
2022-11-09T12:30:12.980Z,100899.97
2022-11-09T12:33:02.021Z,100898.56
2022-11-09T12:35:52.986Z,100885.94
2022-11-09T12:38:32.240Z,100889.97
2022-11-09T12:41:05.279Z,100890.63
2022-11-09T12:43:45.483Z,100890.53
2022-11-09T12:46:14.864Z,100894.09
2022-11-09T12:48:41.241Z,100899.50
2022-11-09T12:51:08.619Z,100898.44
2022-11-09T12:53:37.143Z,100885.06
2022-11-09T12:56:18.842Z,100899.13
2022-11-09T12:58:45.764Z,100905.91
2022-11-09T13:01:32.365Z,100897.66
2022-11-09T13:04:01.533Z,100907.28
2022-11-09T13:06:32.498Z,100908.63
2022-11-09T13:09:02.942Z,100894.53
2022-11-09T13:11:41.194Z,100901.69
2022-11-09T13:14:22.539Z,100903.00
2022-11-09T13:16:50.408Z,100917.53
2022-11-09T13:19:35.019Z,100925.59
2022-11-09T13:22:13.506Z,100921.56
2022-11-09T13:24:49.786Z,100930.19
2022-11-09T13:27:40.977Z,100935.16
2022-11-09T13:30:25.741Z,100934.94
2022-11-09T13:33:16.471Z,100940.19
2022-11-09T13:35:43.045Z,100933.81
2022-11-09T13:38:16.352Z,100943.44
2022-11-09T13:40:48.303Z,100960.72
2022-11-09T13:43:25.486Z,100953.59
2022-11-09T13:46:10.109Z,100950.94
2022-11-09T13:48:39.447Z,100961.88
2022-11-09T13:51:12.500Z,100949.84
2022-11-09T13:53:38.821Z,100958.78
2022-11-09T13:56:27.612Z,100946.47
2022-11-09T13:59:07.303Z,100960.06
2022-11-09T14:01:44.777Z,100957.09
2022-11-09T14:04:27.957Z,100959.31
2022-11-09T14:07:03.804Z,100961.53
2022-11-09T14:09:56.371Z,100958.59
2022-11-09T14:12:32.881Z,100972.09
2022-11-09T14:15:34.817Z,100967.69
2022-11-09T14:18:10.711Z,100976.78
2022-11-09T14:20:42.136Z,100984.91
2022-11-09T14:23:21.655Z,100976.56
2022-11-09T14:25:49.231Z,100987.75
2022-11-09T14:28:28.055Z,100988.50
2022-11-09T14:30:55.099Z,100999.53
2022-11-09T14:33:25.312Z,101001.53
2022-11-09T14:35:54.817Z,101010.28
2022-11-09T14:38:25.649Z,101011.72
2022-11-09T14:40:53.391Z,101007.13
2022-11-09T14:43:38.738Z,101011.81
2022-11-09T14:46:07.059Z,101013.63
2022-11-09T14:48:33.903Z,101007.13
2022-11-09T14:51:02.935Z,101013.38
2022-11-09T14:53:32.209Z,101017.34
2022-11-09T14:56:08.085Z,101032.16
2022-11-09T14:58:39.594Z,101034.41
2022-11-09T15:01:19.840Z,101030.78
2022-11-09T15:04:05.828Z,101031.75
2022-11-09T15:06:33.714Z,101038.03
2022-11-09T15:09:06.219Z,101040.97
2022-11-09T15:11:35.771Z,101046.81
2022-11-09T15:14:24.029Z,101052.63
2022-11-09T15:17:14.678Z,101065.56
2022-11-09T15:19:58.583Z,101066.44
2022-11-09T15:22:37.088Z,101072.28
2022-11-09T15:25:24.787Z,101086.81
2022-11-09T15:28:00.610Z,101075.78
2022-11-09T15:30:34.732Z,101073.31
2022-11-09T15:33:10.795Z,101072.19
2022-11-09T15:35:37.204Z,101072.47
2022-11-09T15:38:03.717Z,101078.44
2022-11-09T15:40:30.045Z,101080.78
2022-11-09T15:42:56.350Z,101079.00
2022-11-09T15:45:22.744Z,101076.03
2022-11-09T15:47:55.018Z,101090.56
2022-11-09T15:50:26.728Z,101097.22
2022-11-09T15:52:53.508Z,101092.91
2022-11-09T15:55:22.002Z,101106.56
2022-11-09T15:57:50.783Z,101111.41
2022-11-09T16:00:21.020Z,101113.66
2022-11-09T16:02:47.887Z,101124.94
2022-11-09T16:05:14.932Z,101117.28
2022-11-09T16:07:48.873Z,101124.50
2022-11-09T16:10:15.846Z,101130.66
2022-11-09T16:12:46.124Z,101132.16
2022-11-09T16:15:13.313Z,101141.88
2022-11-09T16:17:39.644Z,101139.94
2022-11-09T16:20:06.430Z,101138.25
2022-11-09T16:22:33.540Z,101145.75
2022-11-09T16:24:59.918Z,101147.44
2022-11-09T16:30:14.235Z,101156.53
2022-11-09T16:32:40.814Z,101160.81
2022-11-09T16:35:26.106Z,101170.44
2022-11-09T16:37:55.083Z,101176.25
2022-11-09T16:40:21.683Z,101179.31
2022-11-09T16:42:49.432Z,101180.81
2022-11-09T16:45:17.185Z,101186.50
2022-11-09T16:47:50.824Z,101194.72
2022-11-09T16:50:17.817Z,101204.19
2022-11-09T16:52:44.714Z,101207.25
2022-11-09T16:55:11.125Z,101204.72
2022-11-09T16:57:37.566Z,101213.31
2022-11-09T17:00:06.090Z,101217.91
2022-11-09T17:02:32.861Z,101221.09
2022-11-09T17:04:59.223Z,101224.44
2022-11-09T17:07:26.140Z,101233.34
2022-11-09T17:09:52.523Z,101231.50
2022-11-09T17:12:18.861Z,101239.94
2022-11-09T17:14:45.172Z,101237.31
2022-11-09T17:17:11.506Z,101241.91
2022-11-09T17:19:38.174Z,101246.91
2022-11-09T17:22:04.535Z,101250.38
2022-11-09T17:24:31.893Z,101255.81
2022-11-09T17:26:58.205Z,101263.47
2022-11-09T17:29:24.667Z,101267.81
2022-11-09T17:31:52.316Z,101271.38
2022-11-09T17:34:18.674Z,101270.25
2022-11-09T17:39:31.990Z,101283.66
2022-11-09T17:41:58.326Z,101282.78
2022-11-09T17:44:24.884Z,101290.84
2022-11-09T17:46:51.498Z,101290.47
2022-11-09T17:49:17.827Z,101291.63
2022-11-09T17:51:44.372Z,101293.47
2022-11-09T17:54:10.712Z,101304.00
2022-11-09T17:56:37.086Z,101296.59
2022-11-09T17:59:04.754Z,101307.34
2022-11-09T18:01:33.160Z,101309.00
2022-11-09T18:04:06.733Z,101317.53
2022-11-09T18:06:33.548Z,101321.00
2022-11-09T18:09:34.278Z,101322.44
2022-11-09T18:11:46.345Z,101329.06
2022-11-09T18:14:13.387Z,101349.09
2022-11-09T18:16:39.726Z,101338.53
2022-11-09T18:19:06.476Z,101344.78
2022-11-09T18:21:33.561Z,101353.53
2022-11-09T18:23:59.974Z,101345.69
2022-11-09T18:26:26.306Z,101360.16
2022-11-09T18:28:52.658Z,101355.75
2022-11-09T18:31:19.059Z,101361.22
2022-11-09T18:33:45.532Z,101368.09
2022-11-09T18:36:17.142Z,101369.81
2022-11-09T18:38:44.260Z,101377.59
2022-11-09T18:41:14.051Z,101370.13
2022-11-09T18:43:41.506Z,101379.03
2022-11-09T18:46:10.230Z,101380.97
2022-11-09T18:48:37.535Z,101387.94
2022-11-09T18:51:05.645Z,101381.81
2022-11-09T18:53:37.956Z,101387.94
2022-11-09T18:56:07.433Z,101398.00
2022-11-09T18:58:34.614Z,101412.16
2022-11-09T19:01:03.812Z,101399.94
2022-11-09T19:03:30.775Z,101405.47
2022-11-09T19:05:57.319Z,101406.78
2022-11-09T19:08:42.808Z,101405.06
2022-11-09T19:11:13.506Z,101413.69
2022-11-09T19:13:40.317Z,101422.31
2022-11-09T19:16:09.345Z,101427.38
2022-11-09T19:18:35.871Z,101436.97
2022-11-09T19:21:02.572Z,101430.97
2022-11-09T19:23:34.159Z,101438.44
2022-11-09T19:26:01.848Z,101442.28
2022-11-09T19:28:28.182Z,101449.50
2022-11-09T19:30:54.513Z,101452.50
2022-11-09T19:33:20.818Z,101453.34
2022-11-09T19:36:15.028Z,101456.47
2022-11-09T19:38:38.032Z,101460.06
2022-11-09T19:41:04.474Z,101474.47
2022-11-09T19:43:30.788Z,101471.38
2022-11-09T19:45:57.159Z,101485.81
2022-11-09T19:48:23.656Z,101482.22
2022-11-09T19:50:52.203Z,101485.34
2022-11-09T19:53:19.162Z,101485.59
2022-11-09T19:55:45.495Z,101498.31
2022-11-09T19:58:11.886Z,101497.63
2022-11-09T20:00:38.223Z,101512.47
2022-11-09T20:03:05.095Z,101512.75
2022-11-09T20:05:34.472Z,101515.88
2022-11-09T20:08:04.236Z,101513.56
2022-11-09T20:10:30.717Z,101514.66
2022-11-09T20:12:57.166Z,101530.25
2022-11-09T20:15:23.536Z,101531.44
2022-11-09T20:17:49.842Z,101537.69
2022-11-09T20:20:16.347Z,101541.75
2022-11-09T20:22:42.973Z,101537.66
2022-11-09T20:25:09.870Z,101542.94
2022-11-09T20:27:36.187Z,101548.00
2022-11-09T20:30:03.466Z,101551.59
2022-11-09T20:32:29.931Z,101550.16
2022-11-09T20:34:56.353Z,101557.09
2022-11-09T20:37:22.698Z,101553.50
2022-11-09T20:39:49.034Z,101569.31
2022-11-09T20:42:15.378Z,101565.38
2022-11-09T20:44:41.849Z,101568.13
2022-11-09T20:47:08.163Z,101572.22
2022-11-09T20:49:34.480Z,101568.63
2022-11-09T20:52:00.817Z,101576.13
2022-11-09T20:54:27.130Z,101580.81
2022-11-09T20:56:53.527Z,101578.66
2022-11-09T20:59:19.828Z,101572.63
2022-11-09T21:01:46.641Z,101590.63
2022-11-09T21:04:12.977Z,101587.84
2022-11-09T21:06:39.491Z,101585.44
2022-11-09T21:09:06.085Z,101594.19
2022-11-09T21:11:35.628Z,101592.75
2022-11-09T21:14:02.874Z,101594.44
2022-11-09T21:16:29.612Z,101600.88
2022-11-09T21:18:55.986Z,101596.81
2022-11-09T21:21:24.353Z,101601.59
2022-11-09T21:24:09.374Z,101611.44
2022-11-09T21:26:54.036Z,101612.63
2022-11-09T21:29:46.261Z,101605.31
2022-11-09T21:32:12.768Z,101618.63
2022-11-09T21:34:39.490Z,101612.63
2022-11-09T21:37:06.138Z,101621.50
2022-11-09T21:39:33.055Z,101623.31
2022-11-09T21:42:00.089Z,101621.31
2022-11-09T21:44:31.483Z,101613.72
2022-11-09T21:46:58.569Z,101629.72
2022-11-09T21:49:25.233Z,101623.63
2022-11-09T21:51:52.100Z,101632.38
2022-11-09T21:54:18.602Z,101628.81
2022-11-09T21:56:44.941Z,101633.59
2022-11-09T21:59:11.250Z,101631.88
2022-11-09T22:01:37.613Z,101643.63
2022-11-09T22:04:04.198Z,101644.22
2022-11-09T22:06:30.706Z,101644.09
2022-11-09T22:08:57.186Z,101663.00
2022-11-09T22:11:44.596Z,101666.81
2022-11-09T22:14:34.435Z,101678.13
2022-11-09T22:17:01.254Z,101672.34
2022-11-09T22:19:46.942Z,101674.47
2022-11-09T22:22:14.517Z,101675.94
2022-11-09T22:24:40.927Z,101683.34
2022-11-09T22:27:07.471Z,101681.13
2022-11-09T22:29:33.801Z,101684.00
2022-11-09T22:32:00.181Z,101686.34
2022-11-09T22:34:26.481Z,101691.22
2022-11-09T22:36:52.854Z,101684.91
2022-11-09T22:39:20.092Z,101688.50
2022-11-09T22:41:46.398Z,101691.00
2022-11-09T22:44:13.144Z,101692.06
2022-11-09T22:46:39.557Z,101694.22
2022-11-09T22:49:06.623Z,101693.81
2022-11-09T22:51:32.943Z,101698.44
2022-11-09T22:53:59.272Z,101696.75
2022-11-09T22:56:25.604Z,101711.50
2022-11-09T22:58:52.481Z,101701.19
2022-11-09T23:01:20.807Z,101708.97
2022-11-09T23:03:47.458Z,101715.22
2022-11-09T23:06:16.612Z,101725.22
2022-11-09T23:08:42.908Z,101728.81
2022-11-09T23:11:12.203Z,101730.50
2022-11-09T23:13:38.523Z,101736.72
2022-11-09T23:16:08.002Z,101756.84
2022-11-09T23:18:53.723Z,101753.06
2022-11-09T23:21:29.321Z,101760.53
2022-11-09T23:23:59.757Z,101761.25
2022-11-09T23:26:27.426Z,101760.66
2022-11-09T23:28:54.599Z,101754.75
2022-11-09T23:31:25.742Z,101763.72
2022-11-09T23:33:54.410Z,101760.25
2022-11-09T23:36:22.280Z,101769.19
2022-11-09T23:38:48.816Z,101761.41
2022-11-09T23:41:16.015Z,101766.78
2022-11-09T23:43:47.671Z,101764.47
2022-11-09T23:46:15.550Z,101769.94
2022-11-09T23:48:42.330Z,101771.22
2022-11-09T23:51:09.179Z,101779.00
2022-11-09T23:53:36.092Z,101788.06
2022-11-09T23:56:04.783Z,101798.59
2022-11-09T23:58:31.477Z,101786.59
